N65537 KLGB-KSNA
Flight info
| Callsign | N65537 |
|---|---|
| Flight time | 0h 8m |
| Altitude | VFR |
| Route | VFR S |
| Aircraft | P180/L-VGD/C |
Departure
| Time | 2026-04-29 04:38 |
|---|---|
| Airport | Long Beach International Airport (KLGB) |
Arrival
| Time | 2026-04-29 04:47 |
|---|---|
| Airport | John Wayne Orange County International Airport (KSNA) |
| Time | Latitude | Longitude | Altitude | Speed | Heading |
|---|---|---|---|---|---|
| 2026-04-29 04:38 | 33.69718 | -118.14493 | 2688 ft | 140 kts | 114° |
| 2026-04-29 04:38 | 33.69321 | -118.13397 | 2832 ft | 137 kts | 115° |
| 2026-04-29 04:39 | 33.68931 | -118.12354 | 2720 ft | 135 kts | 115° |
| 2026-04-29 04:39 | 33.68540 | -118.11322 | 2583 ft | 135 kts | 115° |
| 2026-04-29 04:39 | 33.68153 | -118.10314 | 2490 ft | 132 kts | 116° |
| 2026-04-29 04:39 | 33.67812 | -118.09291 | 2376 ft | 132 kts | 109° |
| 2026-04-29 04:40 | 33.67540 | -118.08223 | 2199 ft | 136 kts | 107° |
| 2026-04-29 04:40 | 33.67280 | -118.07141 | 2097 ft | 133 kts | 107° |
| 2026-04-29 04:40 | 33.67031 | -118.06103 | 2034 ft | 128 kts | 107° |
| 2026-04-29 04:40 | 33.66782 | -118.05108 | 2005 ft | 122 kts | 108° |
| 2026-04-29 04:41 | 33.66551 | -118.04052 | 1904 ft | 156 kts | 100° |
| 2026-04-29 04:41 | 33.66479 | -118.02703 | 2285 ft | 183 kts | 92° |
| 2026-04-29 04:41 | 33.66440 | -118.01193 | 2536 ft | 162 kts | 93° |
| 2026-04-29 04:41 | 33.66489 | -117.99776 | 2424 ft | 193 kts | 82° |
| 2026-04-29 04:42 | 33.66728 | -117.98035 | 2235 ft | 215 kts | 81° |
| 2026-04-29 04:42 | 33.66978 | -117.96349 | 1882 ft | 200 kts | 80° |
| 2026-04-29 04:42 | 33.67224 | -117.94757 | 1572 ft | 187 kts | 80° |
| 2026-04-29 04:42 | 33.67435 | -117.93282 | 1401 ft | 170 kts | 81° |
| 2026-04-29 04:43 | 33.67610 | -117.91965 | 1347 ft | 151 kts | 80° |
| 2026-04-29 04:43 | 33.67980 | -117.91005 | 1589 ft | 118 kts | 44° |
| 2026-04-29 04:43 | 33.68639 | -117.90455 | 1511 ft | 124 kts | 33° |
| 2026-04-29 04:43 | 33.69390 | -117.89857 | 1585 ft | 122 kts | 33° |
| 2026-04-29 04:44 | 33.70102 | -117.89311 | 1510 ft | 120 kts | 31° |
| 2026-04-29 04:44 | 33.70811 | -117.88789 | 1428 ft | 119 kts | 32° |
| 2026-04-29 04:44 | 33.71566 | -117.88195 | 1467 ft | 141 kts | 34° |
| 2026-04-29 04:44 | 33.72331 | -117.87503 | 1699 ft | 125 kts | 47° |
| 2026-04-29 04:45 | 33.72618 | -117.86623 | 1709 ft | 118 kts | 90° |
| 2026-04-29 04:45 | 33.72430 | -117.85597 | 1503 ft | 130 kts | 111° |
| 2026-04-29 04:45 | 33.72036 | -117.84709 | 1347 ft | 111 kts | 136° |
| 2026-04-29 04:45 | 33.71363 | -117.84417 | 1026 ft | 104 kts | 186° |
| 2026-04-29 04:46 | 33.70741 | -117.84853 | 677 ft | 102 kts | 213° |
| 2026-04-29 04:46 | 33.70117 | -117.85276 | 580 ft | 100 kts | 208° |
| 2026-04-29 04:46 | 33.69523 | -117.85647 | 423 ft | 105 kts | 207° |
| 2026-04-29 04:46 | 33.68880 | -117.86061 | 286 ft | 99 kts | 208° |
| 2026-04-29 04:47 | 33.68301 | -117.86423 | 108 ft | 90 kts | 208° |
| 2026-04-29 04:47 | 33.67814 | -117.86732 | 49 ft | 49 kts | 208° |
| 2026-04-29 04:47 | 33.67590 | -117.86877 | 50 ft | 15 kts | 219° |
| 2026-04-29 04:47 | 33.67580 | -117.86933 | 49 ft | 12 kts | 282° |
| 2026-04-29 04:48 | 33.67596 | -117.86981 | 47 ft | 0 kts | 288° |
| 2026-04-29 04:48 | 33.67589 | -117.87036 | 46 ft | 16 kts | 265° |
| 2026-04-29 04:48 | 33.67595 | -117.87107 | 45 ft | 0 kts | 295° |
| 2026-04-29 04:48 | 33.67595 | -117.87108 | 45 ft | 0 kts | 294° |